Weather reports worldwide

Advertisment
Pian Rosa, Italy (16052): temperature & dewpoint: 12.09.2019 05:00:00 - 18.09.2019 05:00:00 (CEST)Pian Rosa, Italy (16052): wind speed: 12.09.2019 05:00:00 - 18.09.2019 05:00:00 (CEST)Pian Rosa, Italy (16052): wind direction: 12.09.2019 05:00:00 - 18.09.2019 05:00:00 (CEST)Pian Rosa, Italy (16052): visibility: 12.09.2019 05:00:00 - 18.09.2019 05:00:00 (CEST)Pian Rosa, Italy (16052): sunshine duration: 12.09.2019 05:00:00 - 18.09.2019 05:00:00 (CEST)
Date & Time tt [°C] td [°C] ff [km/h] ff [kn] dd vv [km] sd [min]
18.09.2019 05:00:00 1,6 -7,4 21 11 NE 10 0
18.09.2019 04:00:00 2,0 -7,3 18 10 NE 10 0
18.09.2019 03:00:00 2,0 -3,9 11 6 NE 10 0
18.09.2019 02:00:00 1,2 -0,9 15 8 NE 10 0
18.09.2019 01:00:00 1,6 -1,5 18 10 ENE 20 0
18.09.2019 00:00:00 1,4 -0,1 18 10 ENE 10 0
17.09.2019 23:00:00 2,0 -0,3 21 11 NE 10 0
17.09.2019 22:00:00 1,8 1,5 26 14 NE 10 0
17.09.2019 21:00:00 1,6 1,3 29 16 NE 10 0
17.09.2019 20:00:00 1,8 1,4 34 18 NE 15 3
17.09.2019 19:00:00 2,2 1,8 34 18 NNE 20 45
17.09.2019 18:00:00 2,4 1,8 24 13 NNE 20 26
17.09.2019 17:00:00 3,2 0,9 21 11 NE 15 38
17.09.2019 16:00:00 3,4 -2,5 13 7 NE 20 60
17.09.2019 15:00:00 3,4 -4,5 8 4 NE 20 59
17.09.2019 14:00:00 3,2 -5,0 13 7 ENE 20 60
17.09.2019 13:00:00 2,6 -4,2 16 9 NNE 20 60
17.09.2019 12:00:00 2,0 -3,5 29 16 NE 20 60
17.09.2019 11:00:00 2,0 -2,9 35 19 NE 20 60
17.09.2019 10:00:00 1,6 -1,1 29 16 NE 20 59
17.09.2019 09:00:00 0,8 -1,1 31 17 NE 20 36
17.09.2019 08:00:00 0,0 -2,1 35 19 NE 20 0
17.09.2019 07:00:00 0,8 -1,4 35 19 NE 20 0
17.09.2019 06:00:00 0,8 -1,8 41 22 NE 15 0
17.09.2019 05:00:00 1,2 -1,9 37 20 NE 15 0
17.09.2019 04:00:00 1,4 -0,4 28 15 NE 12 0
17.09.2019 03:00:00 1,2 0,9 31 17 NE 12 0
17.09.2019 02:00:00 1,2 0,9 29 16 NE 12 0
17.09.2019 01:00:00 1,4 1,1 28 15 NE 12 0
17.09.2019 00:00:00 1,8 1,5 22 12 NE 12 0
16.09.2019 23:00:00 2,2 1,9 18 10 NE 12 0
16.09.2019 22:00:00 2,4 2,1 15 8 NE 12 0
16.09.2019 21:00:00 2,2 1,9 15 8 NE 15 0
16.09.2019 20:00:00 3,0 2,9 18 10 NE 20 12
16.09.2019 19:00:00 3,6 3,5 16 9 NE 20 38
16.09.2019 18:00:00 4,0 3,7 9 5 NE 20 43
16.09.2019 17:00:00 5,0 2,4 15 8 NE 20 12
16.09.2019 16:00:00 5,0 2,4 8 4 ENE 20 31
16.09.2019 15:00:00 5,0 2,9 5 3 ENE 20 3
16.09.2019 14:00:00 4,6 2,5 4 2 N 20 30
16.09.2019 13:00:00 4,4 2,9 5 3 NE 20 60
16.09.2019 12:00:00 3,2 2,5 9 5 NE 20 60
16.09.2019 11:00:00 2,8 1,9 18 10 ENE 20 60
16.09.2019 10:00:00 1,8 0,0 22 12 NE 20 60
16.09.2019 09:00:00 1,8 -0,3 18 10 NE 20 37
16.09.2019 08:00:00 1,4 -0,7 26 14 NE 25 0
16.09.2019 07:00:00 1,4 -0,4 26 14 NE 25 0
16.09.2019 06:00:00 1,8 -1,1 22 12 NE 15 0
16.09.2019 05:00:00 1,8 0,3 22 12 NE 10 0
16.09.2019 04:00:00 1,6 0,9 22 12 NE 10 0
16.09.2019 03:00:00 1,8 0,5 26 14 NE 10 0
16.09.2019 02:00:00 2,0 1,3 22 12 NE 10 0
16.09.2019 01:00:00 2,4 0,9 21 11 NE 10 0
16.09.2019 00:00:00 2,6 1,9 15 8 ENE 10 0
15.09.2019 23:00:00 2,6 1,9 11 6 ENE 10 0
15.09.2019 22:00:00 2,8 2,1 15 8 NE 10 0
15.09.2019 21:00:00 3,0 2,3 18 10 NE 10 0
15.09.2019 20:00:00 3,8 3,1 9 5 ENE 25 21
15.09.2019 19:00:00 4,2 2,6 9 5 E 9 2
15.09.2019 18:00:00 4,6 2,3 13 7 NE 7 8
15.09.2019 17:00:00 5,0 2,5 11 6 NE 5 3
15.09.2019 16:00:00 7,0 5,3 4 2 N 5 16
15.09.2019 15:00:00 6,8 5,1 4 2 N 10 40
15.09.2019 14:00:00 6,8 5,4 4 2 - 10 48
15.09.2019 13:00:00 6,8 1,5 4 2 N 50 28
15.09.2019 12:00:00 6,0 -1,9 4 2 N 70 5
15.09.2019 11:00:00 5,2 -2,4 4 2 N 70 8
15.09.2019 10:00:00 4,4 -2,2 4 2 N 70 4
15.09.2019 09:00:00 3,6 -2,6 9 5 ENE 70 24
15.09.2019 08:00:00 3,0 -2,1 24 13 NE 60 7
15.09.2019 07:00:00 3,0 -4,2 13 7 ENE 40 0
15.09.2019 06:00:00 3,0 -5,6 16 9 NE 10 0
15.09.2019 05:00:00 3,0 -5,6 21 11 NE 10 0
15.09.2019 04:00:00 2,8 -6,8 11 6 ENE 10 0
15.09.2019 03:00:00 2,8 0,7 8 4 SW 10 0
15.09.2019 02:00:00 3,0 0,4 5 3 SSW 10 0
15.09.2019 01:00:00 3,2 1,1 9 5 SSW 10 0
15.09.2019 00:00:00 3,4 1,0 8 4 E 10 0
14.09.2019 23:00:00 3,8 2,2 4 2 N 10 0
14.09.2019 22:00:00 4,2 2,2 4 2 N 10 0
14.09.2019 21:00:00 4,8 4,1 4 2 S 10 0
14.09.2019 20:00:00 5,2 4,5 4 2 N 30 13
14.09.2019 19:00:00 6,4 5,7 4 2 N 30 19
14.09.2019 18:00:00 7,2 4,5 4 2 N 40 50
14.09.2019 17:00:00 6,8 5,1 4 2 N 40 15
14.09.2019 16:00:00 6,4 5,5 4 2 N 40 17
14.09.2019 15:00:00 6,4 3,4 4 2 N 50 56
14.09.2019 14:00:00 6,0 2,6 4 2 N 60 60
14.09.2019 13:00:00 4,8 0,6 4 2 N 80 60
14.09.2019 12:00:00 4,2 -7,9 9 5 NE 80 60
14.09.2019 11:00:00 4,0 -8,1 11 6 NE 80 60
14.09.2019 10:00:00 4,6 -9,9 13 7 NE 80 60
14.09.2019 09:00:00 4,2 -1,0 5 3 N 80 39
14.09.2019 08:00:00 2,8 -1,6 5 3 - 80 0
14.09.2019 07:00:00 2,8 -3,3 4 2 N 50 0
14.09.2019 06:00:00 2,6 -1,4 9 5 SSW 10 0
14.09.2019 05:00:00 3,2 -5,7 4 2 N 10 0
14.09.2019 04:00:00 3,0 -3,6 13 7 SSW 10 0
14.09.2019 03:00:00 2,8 1,3 8 4 SW 10 0
14.09.2019 02:00:00 2,8 1,0 9 5 SSW 10 0
14.09.2019 01:00:00 3,0 2,3 11 6 SSW 10 0
14.09.2019 00:00:00 3,0 2,3 9 5 SSW 10 0
13.09.2019 23:00:00 3,0 2,0 5 3 SSW 10 0
13.09.2019 22:00:00 3,2 2,3 8 4 SW 10 0
13.09.2019 21:00:00 3,8 -2,8 9 5 NE 10 0
13.09.2019 20:00:00 4,2 -2,6 15 8 NE 60 33
13.09.2019 19:00:00 4,8 -4,0 13 7 NE 80 60
13.09.2019 18:00:00 5,0 -4,5 8 4 NE 80 60
13.09.2019 17:00:00 5,2 -3,1 13 7 NE 80 60
13.09.2019 16:00:00 6,2 -0,1 5 3 E 80 60
13.09.2019 15:00:00 6,0 -6,9 4 2 ENE 80 60
13.09.2019 14:00:00 4,8 -7,3 15 8 NE 80 60
13.09.2019 13:00:00 4,6 -6,0 16 9 NE 80 60
13.09.2019 12:00:00 -4,2 -13,6 24 13 NE 80 60
13.09.2019 11:00:00 4,4 -5,4 16 9 NE 80 55
13.09.2019 10:00:00 4,8 -5,3 16 9 NE 80 60
13.09.2019 09:00:00 4,6 -4,4 8 4 E 80 40
13.09.2019 08:00:00 3,2 -4,7 9 5 E 80 0
13.09.2019 07:00:00 3,8 -4,6 13 7 NE 70 0
13.09.2019 06:00:00 3,8 -6,5 11 6 NE 10 0
13.09.2019 05:00:00 3,6 -6,6 4 2 N 10 0
13.09.2019 04:00:00 4,0 -8,1 5 3 NNE 10 0
13.09.2019 03:00:00 4,4 -12,1 16 9 NE 10 0
13.09.2019 02:00:00 4,4 -16,6 18 10 NE 10 0
13.09.2019 01:00:00 4,8 -17,5 22 12 NE 10 0
13.09.2019 00:00:00 4,6 -17,7 26 14 NE 10 0
12.09.2019 23:00:00 4,2 -24,8 24 13 NE 10 0
12.09.2019 22:00:00 4,2 -24,8 31 17 NE 10 0
12.09.2019 21:00:00 4,0 -22,0 29 16 ENE 10 0
12.09.2019 20:00:00 4,0 -14,3 31 17 ENE 80 34
12.09.2019 19:00:00 2,6 -2,5 29 16 NE 80 60
12.09.2019 18:00:00 2,8 -4,2 29 16 NE 80 60
12.09.2019 17:00:00 2,8 -4,6 28 15 NE 80 60
12.09.2019 16:00:00 3,0 -4,2 22 12 NE 80 60
12.09.2019 15:00:00 2,8 -2,9 18 10 NNE 80 60
12.09.2019 14:00:00 2,4 -3,1 15 8 NE 80 60
12.09.2019 13:00:00 2,0 -3,1 22 12 NE 80 60
12.09.2019 12:00:00 2,0 -3,3 18 10 NE 80 60
12.09.2019 11:00:00 2,0 -3,1 22 12 NE 80 60
12.09.2019 10:00:00 1,8 -2,2 26 14 NE 80 60
12.09.2019 09:00:00 1,6 -2,3 28 15 ENE 80 41
12.09.2019 08:00:00 1,0 -2,2 28 15 NE 80 0
12.09.2019 07:00:00 1,0 -2,7 24 13 ENE 35 0
12.09.2019 06:00:00 1,0 -2,9 22 12 NE 10 0
12.09.2019 05:00:00 0,8 -3,1 24 13 NE 10 0

tt = temperature
td = dewpoint
ff = wind speed
dd = wind direction
vv = visibility
sd = sunshine duration

Next stations